createdAt,value
2019-04-20T00:01:34.420Z,15.60
2019-04-20T00:05:43.418Z,15.60
2019-04-20T00:10:00.442Z,15.60
2019-04-20T00:14:09.026Z,15.60
2019-04-20T00:18:13.501Z,15.60
2019-04-20T00:22:41.029Z,15.40
2019-04-20T00:27:08.585Z,15.10
2019-04-20T00:31:13.776Z,15.10
2019-04-20T00:35:06.375Z,15.00
2019-04-20T00:39:17.216Z,15.10
2019-04-20T00:43:30.355Z,15.00
2019-04-20T00:47:47.852Z,14.70
2019-04-20T00:52:13.040Z,14.50
2019-04-20T00:55:57.101Z,14.60
2019-04-20T01:00:27.137Z,14.40
2019-04-20T01:04:37.754Z,14.20
2019-04-20T01:08:44.381Z,14.30
2019-04-20T01:13:01.159Z,14.40
2019-04-20T01:17:11.853Z,14.20
2019-04-20T01:21:19.490Z,14.10
2019-04-20T01:25:29.007Z,14.10
2019-04-20T01:29:42.321Z,14.20
2019-04-20T01:33:56.591Z,14.10
2019-04-20T01:38:12.559Z,14.10
2019-04-20T01:42:04.977Z,14.20
2019-04-20T01:46:18.762Z,14.10
2019-04-20T01:50:27.719Z,13.90
2019-04-20T01:54:56.389Z,13.80
2019-04-20T01:59:04.604Z,13.80
2019-04-20T02:03:14.964Z,13.80
2019-04-20T02:07:28.393Z,13.70
2019-04-20T02:11:38.216Z,13.50
2019-04-20T02:15:48.557Z,13.50
2019-04-20T02:20:14.339Z,13.50
2019-04-20T02:24:08.058Z,13.30
2019-04-20T02:28:34.279Z,13.30
2019-04-20T02:33:06.988Z,13.40
2019-04-20T02:41:36.206Z,13.20
2019-04-20T02:45:40.418Z,13.20
2019-04-20T02:49:52.473Z,13.20
2019-04-20T02:54:10.974Z,13.20
2019-04-20T02:58:07.841Z,13.10
2019-04-20T03:02:05.981Z,12.90
2019-04-20T03:06:16.543Z,12.90
2019-04-20T03:10:52.522Z,12.90
2019-04-20T03:14:56.173Z,12.90
2019-04-20T03:19:03.184Z,12.90
2019-04-20T03:27:29.477Z,12.80
2019-04-20T03:32:15.451Z,12.80
2019-04-20T03:36:12.098Z,12.80
2019-04-20T03:40:07.309Z,12.90
2019-04-20T03:44:06.462Z,12.90
2019-04-20T03:48:32.580Z,13.00
2019-04-20T03:52:54.261Z,12.90
2019-04-20T03:57:15.563Z,12.90
2019-04-20T04:01:55.575Z,12.90
2019-04-20T04:05:40.765Z,12.80
2019-04-20T04:09:46.710Z,12.70
2019-04-20T04:13:45.977Z,12.60
2019-04-20T04:17:57.973Z,12.50
2019-04-20T04:22:19.265Z,12.50
2019-04-20T04:26:30.096Z,12.50
2019-04-20T04:30:40.542Z,12.50
2019-04-20T04:34:54.192Z,12.50
2019-04-20T04:39:11.454Z,12.60
2019-04-20T04:43:17.022Z,12.60
2019-04-20T04:47:09.891Z,12.60
2019-04-20T04:51:23.988Z,12.50
2019-04-20T04:55:38.112Z,12.50
2019-04-20T04:59:38.469Z,12.40
2019-04-20T05:04:19.256Z,12.40
2019-04-20T05:08:05.776Z,12.40
2019-04-20T05:12:15.223Z,12.40
2019-04-20T05:16:40.087Z,12.40
2019-04-20T05:20:54.691Z,12.40
2019-04-20T05:25:03.405Z,12.20
2019-04-20T05:29:02.784Z,12.40
2019-04-20T05:33:08.275Z,12.50
2019-04-20T05:37:46.958Z,12.50
2019-04-20T05:41:41.921Z,12.50
2019-04-20T05:45:46.563Z,12.60
2019-04-20T05:49:57.277Z,12.70
2019-04-20T05:54:17.112Z,12.80
2019-04-20T05:58:26.193Z,12.80
2019-04-20T06:02:37.754Z,12.90
2019-04-20T06:06:44.376Z,13.00
2019-04-20T06:10:56.411Z,13.10
2019-04-20T06:15:08.361Z,13.10
2019-04-20T06:23:47.902Z,13.30
2019-04-20T06:27:52.985Z,13.40
2019-04-20T06:32:06.653Z,13.50
2019-04-20T06:36:21.938Z,13.60
2019-04-20T06:40:49.602Z,13.70
2019-04-20T06:44:41.319Z,13.80
2019-04-20T06:48:53.853Z,13.90
2019-04-20T06:53:27.959Z,14.00
2019-04-20T06:57:29.144Z,14.20
2019-04-20T07:01:46.752Z,14.30
2019-04-20T07:05:49.235Z,14.40
2019-04-20T07:13:55.614Z,14.60
2019-04-20T07:18:16.946Z,14.80
2019-04-20T07:22:55.910Z,14.90
2019-04-20T07:26:44.522Z,15.10
2019-04-20T07:30:51.914Z,15.30
2019-04-20T07:35:04.912Z,15.40
2019-04-20T07:39:15.843Z,15.50
2019-04-20T07:43:21.370Z,15.60
2019-04-20T08:49:13.167Z,18.10
2019-04-20T08:57:11.219Z,18.50
2019-04-20T09:01:24.224Z,18.70
2019-04-20T09:05:44.914Z,19.00
2019-04-20T09:10:00.802Z,19.20
2019-04-20T09:13:55.875Z,19.50
2019-04-20T09:18:09.313Z,19.70
2019-04-20T09:22:40.536Z,19.90
2019-04-20T09:26:58.762Z,20.10
2019-04-20T09:31:11.921Z,20.30
2019-04-20T09:35:20.966Z,20.50
2019-04-20T09:39:28.423Z,20.70
2019-04-20T09:43:30.352Z,20.90
2019-04-20T09:47:44.506Z,21.10
2019-04-20T09:52:03.851Z,21.30
2019-04-20T09:56:18.245Z,21.50
2019-04-20T10:00:25.632Z,21.60
2019-04-20T10:04:21.619Z,21.90
2019-04-20T10:08:33.993Z,21.90
2019-04-20T10:12:41.739Z,22.20
2019-04-20T10:16:51.735Z,22.40
2019-04-20T10:21:01.780Z,22.60
2019-04-20T10:25:10.863Z,22.60
2019-04-20T10:29:19.589Z,22.80
2019-04-20T10:33:28.314Z,23.20
2019-04-20T10:37:39.674Z,23.30
2019-04-20T10:41:53.529Z,23.50
2019-04-20T10:45:59.041Z,23.60
2019-04-20T10:50:09.319Z,23.70
2019-04-20T10:54:18.398Z,23.80
2019-04-20T10:58:27.458Z,24.00
2019-04-20T11:02:37.385Z,24.20
2019-04-20T11:06:46.927Z,24.30
2019-04-20T11:11:08.395Z,24.30
2019-04-20T11:15:06.207Z,24.40
2019-04-20T11:19:15.664Z,24.50
2019-04-20T11:23:24.503Z,24.50
2019-04-20T11:27:34.125Z,24.60
2019-04-20T11:31:48.840Z,24.70
2019-04-20T11:35:52.970Z,24.80
2019-04-20T11:40:01.503Z,24.90
2019-04-20T11:44:11.611Z,25.10
2019-04-20T11:48:21.323Z,25.10
2019-04-20T11:52:33.251Z,25.10
2019-04-20T11:56:43.528Z,25.10
2019-04-20T12:00:59.362Z,25.30
2019-04-20T12:05:12.775Z,25.40
2019-04-20T12:09:14.944Z,25.40
2019-04-20T12:13:24.838Z,25.30
2019-04-20T12:17:33.554Z,25.40
2019-04-20T12:21:42.239Z,25.50
2019-04-20T12:25:52.239Z,25.60
2019-04-20T12:30:01.847Z,25.60
2019-04-20T12:34:10.716Z,25.70
2019-04-20T12:38:19.238Z,25.60
2019-04-20T12:42:28.709Z,25.70
2019-04-20T12:46:38.204Z,25.80
2019-04-20T12:50:47.924Z,25.90
2019-04-20T12:54:58.324Z,25.80
2019-04-20T12:59:07.469Z,25.60
2019-04-20T13:03:17.264Z,25.60
2019-04-20T13:07:26.892Z,25.50
2019-04-20T13:11:56.992Z,25.60
2019-04-20T13:16:08.204Z,25.50
2019-04-20T13:20:18.286Z,25.50
2019-04-20T13:24:27.163Z,25.50
2019-04-20T13:28:37.047Z,25.60
2019-04-20T13:32:46.217Z,25.60
2019-04-20T13:36:55.720Z,25.80
2019-04-20T13:41:04.499Z,25.80
2019-04-20T13:45:17.112Z,25.70
2019-04-20T13:49:27.040Z,25.80
2019-04-20T13:53:37.049Z,26.00
2019-04-20T13:57:56.382Z,25.90
2019-04-20T14:02:08.878Z,25.90
2019-04-20T14:06:18.465Z,25.90
2019-04-20T14:10:27.419Z,25.90
2019-04-20T14:14:37.002Z,26.10
2019-04-20T14:18:47.002Z,26.10
2019-04-20T14:22:56.910Z,26.00
2019-04-20T14:27:06.566Z,26.00
2019-04-20T14:31:16.099Z,26.00
2019-04-20T14:35:25.004Z,26.10
2019-04-20T14:39:34.222Z,26.10
2019-04-20T14:43:42.907Z,26.10
2019-04-20T14:47:51.950Z,26.10
2019-04-20T14:52:01.530Z,26.10
2019-04-20T14:56:11.418Z,26.00
2019-04-20T15:00:27.846Z,26.00
2019-04-20T15:04:37.070Z,25.90
2019-04-20T15:08:45.654Z,26.00
2019-04-20T15:12:59.107Z,25.90
2019-04-20T15:17:04.739Z,25.90
2019-04-20T15:21:21.713Z,25.80
2019-04-20T15:25:31.592Z,25.70
2019-04-20T15:29:40.252Z,25.60
2019-04-20T15:33:48.911Z,25.60
2019-04-20T15:37:57.434Z,25.50
2019-04-20T15:42:07.325Z,25.50
2019-04-20T15:46:17.252Z,25.40
2019-04-20T15:50:26.068Z,25.30
2019-04-20T15:54:35.608Z,25.20
2019-04-20T15:58:44.294Z,25.20
2019-04-20T16:03:03.398Z,25.10
2019-04-20T16:07:13.043Z,25.10
2019-04-20T16:11:21.721Z,25.00
2019-04-20T16:15:31.638Z,24.90
2019-04-20T16:19:49.170Z,24.80
2019-04-20T16:23:52.589Z,24.70
2019-04-20T16:28:01.567Z,24.70
2019-04-20T16:32:10.126Z,24.60
2019-04-20T16:36:18.763Z,24.50
2019-04-20T16:40:27.423Z,24.40
2019-04-20T16:44:35.928Z,24.30
2019-04-20T16:48:44.423Z,24.20
2019-04-20T16:52:52.921Z,24.10
2019-04-20T16:57:02.597Z,24.00
2019-04-20T17:01:11.630Z,23.90
2019-04-20T17:05:21.030Z,23.90
2019-04-20T17:09:29.630Z,23.80
2019-04-20T17:13:43.864Z,23.70
2019-04-20T17:17:51.111Z,23.60
2019-04-20T17:21:59.154Z,23.40
2019-04-20T17:26:10.440Z,23.40
2019-04-20T17:30:25.490Z,23.30
2019-04-20T17:34:50.040Z,23.20
2019-04-20T17:38:52.028Z,23.00
2019-04-20T17:43:04.309Z,23.00
2019-04-20T17:47:25.866Z,22.80
2019-04-20T17:51:34.487Z,22.70
2019-04-20T17:55:37.726Z,22.60
2019-04-20T17:59:44.836Z,22.40
2019-04-20T18:04:23.243Z,22.30
2019-04-20T18:08:27.264Z,22.20
2019-04-20T18:12:23.204Z,22.10
2019-04-20T18:16:46.526Z,22.00
2019-04-20T18:20:54.790Z,21.80
2019-04-20T18:25:26.796Z,21.70
2019-04-20T18:29:39.796Z,21.60
2019-04-20T18:33:30.270Z,21.50
2019-04-20T18:37:36.834Z,21.40
2019-04-20T18:41:51.412Z,21.30
2019-04-20T18:46:14.854Z,21.30
2019-04-20T18:50:15.020Z,21.20
2019-04-20T18:54:22.142Z,21.10
2019-04-20T18:58:27.300Z,21.10
2019-04-20T19:02:40.946Z,20.90
2019-04-20T19:06:45.997Z,20.80
2019-04-20T19:11:03.226Z,20.80
2019-04-20T19:15:38.610Z,20.70
2019-04-20T19:19:34.234Z,20.50
2019-04-20T19:23:42.439Z,20.40
2019-04-20T19:27:50.853Z,20.30
2019-04-20T19:32:17.260Z,20.20
2019-04-20T19:36:19.791Z,20.10
2019-04-20T19:40:31.244Z,20.10
2019-04-20T19:44:47.731Z,20.00
2019-04-20T19:48:49.614Z,19.90
2019-04-20T19:53:20.010Z,19.90
2019-04-20T19:57:15.908Z,19.80
2019-04-20T20:01:09.361Z,19.80
2019-04-20T20:05:25.034Z,19.80
2019-04-20T20:09:32.422Z,19.70
2019-04-20T20:13:44.929Z,19.70
2019-04-20T20:18:13.546Z,19.60
2019-04-20T20:22:12.857Z,19.50
2019-04-20T20:26:19.691Z,19.40
2019-04-20T20:30:28.023Z,19.30
2019-04-20T20:34:36.362Z,19.20
2019-04-20T20:38:46.937Z,19.00
2019-04-20T20:43:06.178Z,19.00
2019-04-20T20:47:21.965Z,18.90
2019-04-20T20:51:34.490Z,18.80
2019-04-20T20:55:32.166Z,18.80
2019-04-20T20:59:42.925Z,18.80
2019-04-20T21:03:45.280Z,18.70
2019-04-20T21:07:53.318Z,18.60
2019-04-20T21:12:08.131Z,18.50
2019-04-20T21:16:19.755Z,18.40
2019-04-20T21:20:46.536Z,18.30
2019-04-20T21:24:48.455Z,18.30
2019-04-20T21:28:57.584Z,18.30
2019-04-20T21:33:07.900Z,18.10
2019-04-20T21:37:20.059Z,18.10
2019-04-20T21:41:27.885Z,18.10
2019-04-20T21:45:38.037Z,18.00
2019-04-20T21:49:57.957Z,18.00
2019-04-20T21:53:59.598Z,17.80
2019-04-20T21:58:09.093Z,17.80
2019-04-20T22:02:45.981Z,17.70
2019-04-20T22:06:47.878Z,17.60
2019-04-20T22:10:57.667Z,17.60
2019-04-20T22:15:17.024Z,17.70
2019-04-20T22:19:31.602Z,17.60
2019-04-20T22:23:46.628Z,17.60
2019-04-20T22:27:38.874Z,17.40
2019-04-20T22:31:53.457Z,17.40
2019-04-20T22:36:02.163Z,17.30
2019-04-20T22:40:11.849Z,17.20
2019-04-20T22:44:22.698Z,17.20
2019-04-20T22:48:29.662Z,17.10
2019-04-20T22:52:48.645Z,17.10
2019-04-20T22:57:01.048Z,17.10
2019-04-20T23:01:03.951Z,17.00
2019-04-20T23:05:09.064Z,16.90
2019-04-20T23:09:18.786Z,16.70
2019-04-20T23:13:34.358Z,16.70
2019-04-20T23:17:43.078Z,16.70
2019-04-20T23:21:55.739Z,16.60
2019-04-20T23:25:58.893Z,16.60
2019-04-20T23:30:12.602Z,16.60
2019-04-20T23:34:21.872Z,16.50
2019-04-20T23:38:28.811Z,16.50
2019-04-20T23:42:55.809Z,16.50
2019-04-20T23:47:11.536Z,16.40
2019-04-20T23:51:38.564Z,16.40
2019-04-20T23:55:27.758Z,16.20
2019-04-20T23:59:41.164Z,16.20
